Etusivu
METAR-TAF:

METAR-TAF

Lentoasemat :

Key West, Florida, Yhdysvallat

Leveyspiiri: 24-33-13N, Pituuspiiri: 081-45-13W, korkeus merenpinnasta: 1 m

Tämänhetkinen sää

Tämä raportti tehtiin 44 minuuttia sitten, kello 10.53 UTC
Tuuli 12 kn pohjoisen/luoteesta
Lämpötila 19°C
Kosteus 83%
Ilmanpaine 1015 hPa
Näkyvyys: 16.1 km
selkeää

METAR: KEYW 161053Z 33012KT 10SM CLR 19/16 A2997 RMK AO2 SLP147 T01940161

Aika: 06:37 (11:37 UTC)

Sääennuste

Tämä raportti tehtiin 3 tuntia ja 0 minuuttia sitten, kello 08.37 UTC
Ennuste voimassa 16. päivästä klo 09 UTC - 17. päivään klo 06 UTC
Tuuli 12 kn luoteesta puuskistuen 18 kn:hen
Näkyvyys: 10 km
Muutamia pilviä 2500 ft:n korkeudessa
Hajanaisia pilviä 20000 ft:n korkeudessa
From 16. päivästä klo 2100 UTC
Tuuli 11 kn pohjoisesta
Näkyvyys: 10 km
Hajanaisia pilviä 3500 ft:n korkeudessa
Hajonneita pilviä 20000 ft:n korkeudessa

TAF: KEYW 160837Z 1609/1706 32012G18KT P6SM FEW025 SCT200 FM162100 35011KT P6SM SCT035 BKN200

Säähavainnot ja -ennusteet yli 4000 lentoasemalta (METAR- ja TAF-raportit).

Käytössä olevat sääasemat on merkitty karttaan keltaisilla ja punaisilla pisteillä.

Aseta hiiri pisteen päälle nähdäksesi sääaseman nimen.

Klikkaa sitten nähdäksesi säähavainnot ja -ennusteet.

Kartan vaihtaminen: klikkaa mustalla rastilla varustettuja vihreitä pisteitä, niin voit zoomata sisään; viivalla varustettua vihreää pistettä, niin voit zoomata ulos tai vihreitä nuolia, niin pääset viereisille kartoille.


METAR-TAF: